Time;durP1;ratioP1;P1;durP2;ratioP2;P2;SDS_P1;SDS_P2;PMS_P1;PMS_P2;Temp;Humidity;BMP_temperature;BMP_pressure;BME280_temperature;BME280_humidity;BME280_pressure;Samples;Min_cycle;Max_cycle;Signal;HPM_P1;HPM_P2
2023/04/03 00:00:02;;;;;;;5.00;1.92;;;;;;;6.93;80.91;94020.63;5073342;28;20202;-76
2023/04/03 00:02:29;;;;;;;4.80;1.67;;;;;;;6.89;80.74;94033.13;5096583;28;20208;-76
2023/04/03 00:04:56;;;;;;;3.10;2.13;;;;;;;6.86;80.49;94028.38;5095629;28;20233;-76
2023/04/03 00:07:24;;;;;;;3.08;1.73;;;;;;;6.81;80.62;94025.06;5101623;28;20805;-76
2023/04/03 00:09:51;;;;;;;3.15;1.77;;;;;;;6.73;81.60;94023.94;5102481;28;20779;-76
2023/04/03 00:12:17;;;;;;;3.90;1.95;;;;;;;6.65;81.60;94014.78;5097704;28;20218;-76
2023/04/03 00:14:44;;;;;;;3.75;1.70;;;;;;;6.67;82.22;94022.56;5107537;28;20229;-76
2023/04/03 00:17:11;;;;;;;2.28;1.58;;;;;;;6.47;82.36;94017.78;5098348;28;20279;-76
2023/04/03 00:19:38;;;;;;;2.33;1.50;;;;;;;6.44;82.49;94013.84;5091416;28;20769;-75
2023/04/03 00:22:04;;;;;;;3.95;1.92;;;;;;;6.50;83.54;94019.84;5086032;28;20258;-76
2023/04/03 00:24:32;;;;;;;7.03;1.83;;;;;;;6.47;83.45;94004.34;5082066;28;20234;-76
2023/04/03 00:26:59;;;;;;;2.35;1.92;;;;;;;6.46;83.85;94005.44;5099786;28;20202;-75
2023/04/03 00:29:26;;;;;;;3.05;1.88;;;;;;;6.51;83.83;94019.53;5096706;28;20564;-75
2023/04/03 00:31:53;;;;;;;5.35;2.00;;;;;;;6.54;83.34;94012.75;5068306;28;20292;-76
2023/04/03 00:34:19;;;;;;;3.67;1.73;;;;;;;6.45;83.12;94009.25;5098165;28;20216;-76
2023/04/03 00:36:46;;;;;;;2.83;2.28;;;;;;;6.33;83.74;94013.34;5098533;28;20228;-77
2023/04/03 00:39:13;;;;;;;3.47;1.90;;;;;;;6.43;82.16;94006.88;5095224;28;20205;-76
2023/04/03 00:41:41;;;;;;;4.82;2.42;;;;;;;6.35;83.29;94018.44;5098803;28;20202;-76
2023/04/03 00:45:02;;;;;;;3.80;2.25;;;;;;;6.27;84.14;94014.63;5074675;28;20723;-76
2023/04/03 00:47:31;;;;;;;2.28;1.90;;;;;;;6.18;84.56;94019.19;5102304;28;20281;-76
2023/04/03 00:49:58;;;;;;;2.78;1.80;;;;;;;6.11;84.79;94010.81;5100208;28;20214;-75
2023/04/03 00:52:29;;;;;;;2.30;1.40;;;;;;;6.11;85.41;94021.56;5095399;28;20651;-75
2023/04/03 00:55:00;;;;;;;3.78;2.00;;;;;;;6.21;85.74;94021.25;5096381;28;20206;-75
2023/04/03 00:57:29;;;;;;;3.67;1.70;;;;;;;6.28;85.77;94026.19;5084373;28;20599;-75
2023/04/03 01:00:01;;;;;;;2.42;1.75;;;;;;;6.24;85.24;94031.41;5088918;28;20210;-76
2023/04/03 01:02:27;;;;;;;1.90;1.30;;;;;;;6.23;85.05;94029.81;5084355;28;20228;-76
2023/04/03 01:04:54;;;;;;;4.13;2.15;;;;;;;6.16;84.86;94031.38;5101153;28;20221;-75
2023/04/03 01:07:23;;;;;;;7.72;1.88;;;;;;;6.15;85.15;94027.13;5095554;28;20246;-75
2023/04/03 01:09:54;;;;;;;1.83;1.40;;;;;;;6.11;85.21;94031.53;5094518;28;20202;-75
2023/04/03 01:12:22;;;;;;;3.53;1.85;;;;;;;5.96;85.21;94030.06;5100113;28;20569;-75
2023/04/03 01:14:53;;;;;;;2.35;1.55;;;;;;;5.95;84.84;94029.28;5101244;28;20623;-76
2023/04/03 01:17:29;;;;;;;2.67;1.88;;;;;;;5.95;84.71;94033.88;5079065;28;20260;-76
2023/04/03 01:20:24;;;;;;;4.50;1.73;;;;;;;5.93;85.09;94030.69;5099240;28;20292;-76
2023/04/03 01:22:57;;;;;;;1.33;0.98;;;;;;;5.94;85.74;94026.91;5087760;28;20732;-75
2023/04/03 01:25:24;;;;;;;2.72;1.85;;;;;;;5.90;85.40;94031.31;5097461;28;20225;-76
2023/04/03 01:27:51;;;;;;;3.17;1.52;;;;;;;5.89;84.98;94024.34;5094407;28;20250;-76
2023/04/03 01:30:22;;;;;;;2.97;1.45;;;;;;;5.90;85.13;94031.31;5104638;28;20579;-75
2023/04/03 01:32:50;;;;;;;1.98;1.30;;;;;;;5.95;85.12;94028.50;5094599;28;20246;-76
2023/04/03 01:35:17;;;;;;;3.30;1.80;;;;;;;5.95;85.12;94023.13;5097247;28;20202;-76
2023/04/03 01:37:43;;;;;;;2.80;1.63;;;;;;;5.93;85.50;94025.31;5101253;28;20668;-76
2023/04/03 01:40:11;;;;;;;3.00;1.73;;;;;;;5.96;85.73;94024.69;5098405;28;20246;-77
2023/04/03 01:42:37;;;;;;;2.00;1.40;;;;;;;5.93;85.63;94020.75;5094079;28;20193;-76
2023/04/03 01:45:05;;;;;;;2.28;1.48;;;;;;;5.86;85.86;94024.97;5096194;28;20313;-75
2023/04/03 01:47:31;;;;;;;2.53;1.70;;;;;;;5.85;85.85;94018.00;5074190;28;20209;-76
2023/04/03 01:50:00;;;;;;;2.85;1.48;;;;;;;5.92;85.69;94024.53;5098674;28;20254;-75
2023/04/03 01:52:26;;;;;;;3.08;1.95;;;;;;;5.93;85.73;94030.69;5093790;28;20587;-75
2023/04/03 01:54:53;;;;;;;3.60;1.65;;;;;;;5.91;85.97;94033.69;5099049;28;20202;-75
2023/04/03 01:57:20;;;;;;;4.03;2.17;;;;;;;5.95;86.20;94039.25;5083291;28;20202;-75
2023/04/03 01:59:46;;;;;;;5.18;1.75;;;;;;;5.91;85.78;94027.53;5099585;28;20260;-75
2023/04/03 02:02:14;;;;;;;7.78;1.92;;;;;;;5.85;85.74;94028.75;5105271;28;20224;-75
2023/04/03 02:04:41;;;;;;;2.38;1.80;;;;;;;5.81;85.90;94027.78;5103711;28;20300;-76
2023/04/03 02:07:09;;;;;;;2.45;1.40;;;;;;;5.79;85.05;94035.38;5098024;28;20202;-76
2023/04/03 02:09:36;;;;;;;3.00;1.73;;;;;;;5.71;85.86;94035.03;5098616;28;20206;-76
2023/04/03 02:12:03;;;;;;;2.92;2.25;;;;;;;5.74;85.96;94027.47;5083177;28;20298;-75
2023/04/03 02:14:30;;;;;;;4.82;3.05;;;;;;;5.71;85.99;94034.25;5098942;28;20291;-75
2023/04/03 02:16:57;;;;;;;4.55;3.08;;;;;;;5.72;86.07;94036.63;5104443;28;20246;-75
2023/04/03 02:19:23;;;;;;;6.15;3.30;;;;;;;5.68;86.51;94041.03;5091210;28;20198;-75
2023/04/03 02:21:50;;;;;;;5.05;2.80;;;;;;;5.55;87.15;94036.56;5092655;28;20243;-76
2023/04/03 02:24:18;;;;;;;3.78;2.83;;;;;;;5.50;87.73;94034.00;5083851;28;20697;-76
2023/04/03 02:26:45;;;;;;;3.78;2.90;;;;;;;5.49;87.65;94021.66;5104198;28;20618;-76
2023/04/03 02:29:12;;;;;;;7.90;3.10;;;;;;;5.46;87.87;94018.84;5100679;28;20191;-76
2023/04/03 02:31:38;;;;;;;5.00;2.95;;;;;;;5.44;87.39;94015.66;5085007;28;20242;-76
2023/04/03 02:34:05;;;;;;;6.35;3.72;;;;;;;5.44;87.67;94021.81;5097180;28;20244;-74
2023/04/03 02:36:32;;;;;;;6.82;3.95;;;;;;;5.50;87.18;94020.56;5104381;28;20266;-76
2023/04/03 02:38:59;;;;;;;4.22;2.58;;;;;;;5.40;87.60;94012.00;5104270;28;20266;-76
2023/04/03 02:41:33;;;;;;;3.72;1.80;;;;;;;5.36;87.98;94017.19;5097400;28;20197;-75
2023/04/03 02:44:00;;;;;;;4.38;2.05;;;;;;;5.48;87.45;94019.28;5096903;28;20197;-75
2023/04/03 02:46:26;;;;;;;6.82;2.30;;;;;;;5.46;86.84;94016.16;5102815;28;20726;-75
2023/04/03 02:48:53;;;;;;;3.15;2.20;;;;;;;5.46;87.10;94016.94;5105978;28;20251;-75
2023/04/03 02:51:20;;;;;;;7.05;2.45;;;;;;;5.45;87.04;94010.00;5102534;28;20195;-75
2023/04/03 02:53:47;;;;;;;3.25;2.20;;;;;;;5.43;87.70;94001.44;5076972;28;20210;-76
2023/04/03 02:56:13;;;;;;;4.25;2.38;;;;;;;5.36;88.09;94007.25;5099301;28;20201;-77
2023/04/03 02:58:42;;;;;;;4.93;2.25;;;;;;;5.38;88.11;93998.09;5097413;28;20198;-75
2023/04/03 03:01:08;;;;;;;6.60;2.10;;;;;;;5.42;87.70;93999.88;5103729;28;20191;-75
2023/04/03 03:03:35;;;;;;;2.70;1.88;;;;;;;5.60;86.38;93990.75;5100144;28;20565;-75
2023/04/03 03:06:03;;;;;;;1.83;1.63;;;;;;;5.35;86.96;93994.91;5105658;28;20221;-75
2023/04/03 03:08:30;;;;;;;3.65;2.28;;;;;;;5.29;87.57;93995.38;5097511;28;20307;-75
2023/04/03 03:10:57;;;;;;;3.88;2.38;;;;;;;5.16;88.43;93986.34;5099674;28;20201;-76
2023/04/03 03:13:24;;;;;;;4.18;2.45;;;;;;;5.12;89.24;93982.66;5091944;28;20837;-76
2023/04/03 03:15:52;;;;;;;2.15;1.60;;;;;;;5.22;89.18;93989.66;5100005;28;20238;-76
2023/04/03 03:18:19;;;;;;;3.28;2.20;;;;;;;5.13;89.71;93996.88;5093032;28;20202;-75
2023/04/03 03:20:46;;;;;;;3.35;2.20;;;;;;;5.18;89.87;93991.41;5099782;28;20202;-75
2023/04/03 03:23:13;;;;;;;2.90;1.67;;;;;;;5.22;89.45;93995.03;5089586;28;20649;-75
2023/04/03 03:25:40;;;;;;;5.20;2.67;;;;;;;5.23;89.41;93993.94;5088039;28;20230;-76
2023/04/03 03:28:07;;;;;;;4.00;2.17;;;;;;;5.28;88.99;93993.81;5085134;28;20210;-76
2023/04/03 03:30:34;;;;;;;2.65;1.83;;;;;;;5.15;88.80;93994.69;5089531;28;20194;-76
2023/04/03 03:33:03;;;;;;;7.05;2.92;;;;;;;5.06;89.60;93988.50;5094877;28;20206;-75
2023/04/03 03:35:30;;;;;;;6.43;2.28;;;;;;;5.00;90.26;93982.47;5097457;28;20205;-75
2023/04/03 03:37:56;;;;;;;3.83;2.38;;;;;;;5.08;89.80;93997.00;5102944;28;20210;-75
2023/04/03 03:40:23;;;;;;;7.20;3.65;;;;;;;5.18;89.40;94004.81;5102437;28;20668;-77
2023/04/03 03:42:50;;;;;;;6.50;3.58;;;;;;;5.18;90.06;93999.44;5086164;28;20236;-76
2023/04/03 03:45:17;;;;;;;5.93;2.88;;;;;;;5.00;89.17;93996.66;5083204;28;20678;-76
2023/04/03 03:47:43;;;;;;;8.10;3.15;;;;;;;4.97;89.63;93989.22;5103390;28;20255;-76
2023/04/03 03:50:12;;;;;;;7.20;3.13;;;;;;;4.94;89.30;93989.84;5090549;28;20206;-75
2023/04/03 03:52:39;;;;;;;17.20;6.38;;;;;;;4.98;89.72;93996.19;5083436;28;20556;-74
2023/04/03 03:55:07;;;;;;;9.07;4.55;;;;;;;5.07;89.65;94003.47;5095248;28;20210;-75
2023/04/03 03:57:34;;;;;;;11.35;4.88;;;;;;;5.16;89.58;94001.66;5101787;28;20206;-75
2023/04/03 04:00:00;;;;;;;12.95;4.43;;;;;;;5.16;88.94;93998.97;5102991;28;20221;-76
2023/04/03 04:02:27;;;;;;;7.65;3.90;;;;;;;5.24;88.14;94003.56;5101128;28;20785;-76
2023/04/03 04:04:54;;;;;;;4.72;2.70;;;;;;;5.23;88.51;94007.34;5075203;28;20237;-76
2023/04/03 04:07:22;;;;;;;8.85;3.17;;;;;;;5.21;88.46;93998.81;5096963;28;20866;-77
2023/04/03 04:09:49;;;;;;;4.38;2.13;;;;;;;5.30;88.25;93999.66;5091870;28;20336;-78
2023/04/03 04:12:16;;;;;;;10.98;2.72;;;;;;;5.23;87.98;93993.94;5085572;28;20569;-77
2023/04/03 04:14:46;;;;;;;6.20;2.92;;;;;;;5.30;88.45;94002.34;5106356;28;20240;-78
2023/04/03 04:17:13;;;;;;;5.15;2.58;;;;;;;5.41;88.33;94003.66;5087502;28;20213;-76
2023/04/03 04:19:39;;;;;;;4.05;2.20;;;;;;;5.42;87.85;94024.03;5102264;28;20193;-75
2023/04/03 04:22:06;;;;;;;4.57;2.20;;;;;;;5.46;86.88;94011.56;5098000;28;20306;-75
2023/04/03 04:24:34;;;;;;;15.02;3.35;;;;;;;5.48;87.25;94016.59;5094628;28;20271;-75
2023/04/03 04:27:01;;;;;;;5.03;2.90;;;;;;;5.63;86.70;94011.63;5099044;28;20202;-75
2023/04/03 04:29:28;;;;;;;7.95;2.85;;;;;;;5.72;86.30;94008.97;5101758;28;20288;-76
2023/04/03 04:31:54;;;;;;;4.45;2.42;;;;;;;5.75;86.18;93999.47;5098317;28;20194;-76
2023/04/03 04:34:21;;;;;;;4.82;2.75;;;;;;;5.91;85.40;94012.19;5094889;28;20255;-76
2023/04/03 04:36:48;;;;;;;3.78;2.42;;;;;;;6.07;83.88;94015.22;5098642;28;21108;-74
2023/04/03 04:39:15;;;;;;;4.65;2.67;;;;;;;6.10;83.25;94028.06;5101038;28;20213;-77
2023/04/03 04:41:43;;;;;;;7.82;2.92;;;;;;;6.21;83.46;94015.88;5098475;28;20250;-75
2023/04/03 04:44:10;;;;;;;6.20;2.88;;;;;;;6.13;83.40;94011.31;5087068;28;20207;-76
2023/04/03 04:46:36;;;;;;;11.45;5.70;;;;;;;6.22;83.48;94020.16;5077500;28;20237;-76
2023/04/03 04:49:03;;;;;;;17.48;7.80;;;;;;;6.36;83.25;94033.47;5101165;28;20206;-75
2023/04/03 04:51:30;;;;;;;19.80;8.18;;;;;;;6.35;83.54;94031.88;5087615;28;20210;-76
2023/04/03 04:53:57;;;;;;;4.68;3.25;;;;;;;6.40;83.92;94035.22;5091483;28;20258;-75
2023/04/03 04:56:23;;;;;;;10.32;3.28;;;;;;;6.46;83.15;94029.66;5097777;28;20210;-76
2023/04/03 04:58:51;;;;;;;15.50;5.35;;;;;;;6.62;83.33;94025.38;5102141;28;20198;-77
2023/04/03 05:01:18;;;;;;;6.75;3.75;;;;;;;6.85;82.50;94034.88;5077065;28;20284;-77
2023/04/03 05:03:45;;;;;;;8.10;3.78;;;;;;;7.01;81.60;94033.25;5099870;28;20625;-76
2023/04/03 05:06:12;;;;;;;9.85;3.85;;;;;;;7.15;80.91;94038.47;5099316;28;20220;-77
2023/04/03 05:08:39;;;;;;;6.20;3.65;;;;;;;7.21;80.71;94036.41;5086199;28;20194;-75
2023/04/03 05:11:06;;;;;;;10.43;3.75;;;;;;;6.96;81.31;94049.59;5085476;28;20194;-75
2023/04/03 05:13:32;;;;;;;11.00;3.25;;;;;;;6.82;82.05;94057.06;5081647;28;20264;-76
2023/04/03 05:16:00;;;;;;;7.43;3.08;;;;;;;6.95;81.37;94056.09;5074342;28;20295;-74
2023/04/03 05:18:27;;;;;;;4.88;3.10;;;;;;;6.85;81.54;94056.41;5080198;28;20191;-75
2023/04/03 05:20:54;;;;;;;9.52;3.58;;;;;;;6.89;81.75;94062.75;5079458;28;20194;-75
2023/04/03 05:23:22;;;;;;;11.90;4.50;;;;;;;7.14;80.38;94051.13;5084201;28;20611;-77
2023/04/03 05:25:48;;;;;;;6.95;4.30;;;;;;;7.41;80.18;94051.88;5085469;28;20287;-77
2023/04/03 05:28:15;;;;;;;10.43;3.60;;;;;;;7.45;79.01;94058.22;5075298;28;20202;-78
2023/04/03 05:30:42;;;;;;;17.60;5.00;;;;;;;7.75;78.54;94051.75;5075789;28;20745;-78
2023/04/03 05:33:10;;;;;;;8.80;4.43;;;;;;;8.17;78.78;94068.06;5081405;28;20619;-75
2023/04/03 05:35:38;;;;;;;9.15;5.00;;;;;;;8.55;77.80;94051.81;5079891;28;20199;-78
2023/04/03 05:38:06;;;;;;;6.57;4.30;;;;;;;8.78;76.47;94044.16;5079317;28;20289;-76
2023/04/03 05:40:32;;;;;;;15.13;4.25;;;;;;;8.86;76.73;94040.63;5077776;28;20199;-75
2023/04/03 05:42:59;;;;;;;6.78;4.18;;;;;;;9.11;76.72;94039.59;5082567;28;20195;-76
2023/04/03 05:45:26;;;;;;;6.57;4.22;;;;;;;9.32;76.36;94030.63;5087597;28;20223;-75
2023/04/03 05:47:53;;;;;;;10.00;3.90;;;;;;;9.53;74.42;94036.78;5078708;28;20198;-76
2023/04/03 05:50:21;;;;;;;12.40;4.22;;;;;;;9.66;73.26;94034.88;5080413;28;20198;-76
2023/04/03 05:52:50;;;;;;;7.35;4.53;;;;;;;9.78;73.03;94037.59;5080869;28;20198;-75
2023/04/03 05:55:17;;;;;;;8.95;3.97;;;;;;;9.80;72.93;94029.94;5081565;28;20202;-74
2023/04/03 05:57:44;;;;;;;7.93;3.67;;;;;;;9.86;71.99;94026.66;5081357;28;20248;-75
2023/04/03 06:00:15;;;;;;;12.77;4.53;;;;;;;9.76;71.36;94029.81;5075902;28;20259;-76
2023/04/03 06:02:42;;;;;;;7.30;3.85;;;;;;;10.11;70.16;94024.00;5086552;28;20191;-76
2023/04/03 06:05:11;;;;;;;9.77;4.60;;;;;;;10.15;70.50;94027.56;5086082;28;20227;-76
2023/04/03 06:07:39;;;;;;;14.00;4.40;;;;;;;10.12;68.97;94020.91;5084800;28;20200;-77
2023/04/03 06:10:08;;;;;;;14.60;7.22;;;;;;;10.21;68.62;94018.13;5083775;28;20673;-76
2023/04/03 06:12:35;;;;;;;10.98;5.45;;;;;;;10.52;68.15;94006.72;5085015;28;20272;-75
2023/04/03 06:15:02;;;;;;;11.32;5.78;;;;;;;10.53;67.29;94000.91;5085522;28;20226;-73
2023/04/03 06:17:29;;;;;;;16.42;5.60;;;;;;;10.12;67.97;94009.31;5084862;28;20195;-75
2023/04/03 06:19:58;;;;;;;9.98;4.38;;;;;;;10.14;68.35;94001.63;5084084;28;20656;-76
2023/04/03 06:22:26;;;;;;;9.68;4.25;;;;;;;10.20;68.05;93997.63;5077965;28;20227;-78
2023/04/03 06:24:54;;;;;;;9.15;5.00;;;;;;;10.04;68.93;94010.22;5085153;28;20198;-77
2023/04/03 06:27:21;;;;;;;13.60;5.18;;;;;;;9.93;68.83;94012.59;5085261;28;20222;-77
2023/04/03 06:29:48;;;;;;;20.65;6.07;;;;;;;10.49;67.64;94016.28;5085602;28;20241;-78
2023/04/03 06:32:15;;;;;;;13.88;6.07;;;;;;;10.37;66.69;94016.31;5088582;28;20245;-76
2023/04/03 06:34:42;;;;;;;11.45;5.43;;;;;;;10.33;67.38;94021.63;5091723;28;20274;-76
2023/04/03 06:37:13;;;;;;;11.15;5.53;;;;;;;10.33;67.10;94031.66;5082298;28;20198;-75
2023/04/03 06:39:40;;;;;;;12.50;5.43;;;;;;;10.19;67.56;94039.34;5087859;28;20205;-74
2023/04/03 06:42:08;;;;;;;10.32;5.85;;;;;;;10.52;67.14;94034.53;5099333;28;20626;-76
2023/04/03 06:44:35;;;;;;;11.20;5.20;;;;;;;10.68;66.13;94021.88;5091388;28;20209;-75
2023/04/03 06:47:02;;;;;;;12.90;5.35;;;;;;;10.25;67.33;94032.59;5083556;28;20327;-76
2023/04/03 06:49:29;;;;;;;9.88;5.40;;;;;;;10.07;68.79;94023.06;5091383;28;20198;-78
2023/04/03 06:51:56;;;;;;;9.82;5.05;;;;;;;10.40;67.23;94026.44;5094527;28;20199;-74
2023/04/03 06:54:23;;;;;;;8.25;5.28;;;;;;;10.37;66.81;94031.78;5102440;28;20232;-76
2023/04/03 06:56:50;;;;;;;11.27;5.43;;;;;;;10.98;66.06;94024.28;5089144;28;20205;-75
2023/04/03 06:59:19;;;;;;;13.27;6.05;;;;;;;11.42;64.58;94029.72;5082921;28;20207;-75
2023/04/03 07:01:48;;;;;;;9.02;4.78;;;;;;;11.20;64.33;94031.88;5095157;28;20202;-76
2023/04/03 07:04:15;;;;;;;9.73;5.55;;;;;;;11.43;63.82;94023.16;5076623;28;20401;-75
2023/04/03 07:06:42;;;;;;;9.68;5.57;;;;;;;11.72;63.85;94025.50;5103194;28;20237;-74
2023/04/03 07:09:10;;;;;;;12.00;6.60;;;;;;;11.67;63.05;94018.38;5097452;28;20224;-76
2023/04/03 07:11:37;;;;;;;9.52;6.70;;;;;;;11.91;62.45;94006.59;5096081;28;20739;-76
2023/04/03 07:14:05;;;;;;;11.00;5.82;;;;;;;11.63;63.38;94014.00;5101271;28;20234;-75
2023/04/03 07:16:33;;;;;;;11.38;5.43;;;;;;;11.82;62.84;94000.56;5103095;28;20237;-74
2023/04/03 07:19:00;;;;;;;12.45;5.78;;;;;;;12.08;62.55;94006.25;5090067;28;20207;-74
2023/04/03 07:21:27;;;;;;;17.50;5.95;;;;;;;11.80;63.04;94010.97;5093227;28;20199;-75
2023/04/03 07:23:55;;;;;;;14.18;5.47;;;;;;;12.23;61.76;94001.16;5096459;28;20203;-75
2023/04/03 07:26:22;;;;;;;12.75;6.22;;;;;;;12.23;62.17;93990.28;5093467;28;20218;-75
2023/04/03 07:28:49;;;;;;;10.93;5.15;;;;;;;12.83;61.38;93997.03;5088711;28;20200;-76
2023/04/03 07:31:18;;;;;;;15.73;5.70;;;;;;;13.17;59.86;93995.41;5077522;28;20807;-76
2023/04/03 07:33:46;;;;;;;10.98;5.97;;;;;;;13.50;58.25;93982.06;5094285;28;20244;-75
2023/04/03 07:36:18;;;;;;;12.90;7.18;;;;;;;13.37;58.23;93983.38;5075839;28;20202;-76
2023/04/03 07:38:45;;;;;;;12.10;6.32;;;;;;;12.57;60.14;93981.38;5088334;28;20298;-76
2023/04/03 07:41:17;;;;;;;8.88;5.57;;;;;;;12.97;59.73;93974.81;5108502;28;20289;-76
2023/04/03 07:43:44;;;;;;;12.32;5.63;;;;;;;12.89;58.84;93973.84;5095895;28;20217;-77
2023/04/03 07:46:10;;;;;;;10.18;5.40;;;;;;;11.94;61.35;93973.34;5102693;28;20230;-75
2023/04/03 07:48:37;;;;;;;5.97;3.78;;;;;;;11.85;61.63;93972.75;5101959;28;20679;-75
2023/04/03 07:51:06;;;;;;;11.18;3.88;;;;;;;11.89;61.61;93976.31;5095210;28;20209;-76
2023/04/03 07:53:33;;;;;;;3.55;2.78;;;;;;;12.71;59.92;93973.47;5096059;28;20210;-75
2023/04/03 07:56:02;;;;;;;6.40;4.60;;;;;;;12.60;59.67;93977.91;5102259;28;20210;-73
2023/04/03 07:58:30;;;;;;;7.43;4.28;;;;;;;12.69;59.51;93970.38;5075898;28;20294;-75
2023/04/03 08:00:57;;;;;;;9.02;4.15;;;;;;;12.14;60.15;93976.13;5101396;28;20202;-75
2023/04/03 08:03:24;;;;;;;7.70;3.72;;;;;;;12.24;61.36;93964.72;5102605;28;20621;-75
2023/04/03 08:05:51;;;;;;;10.25;4.93;;;;;;;12.54;60.01;93963.06;5095906;28;20251;-76
2023/04/03 08:08:21;;;;;;;15.45;6.25;;;;;;;12.54;59.75;93973.13;5095605;28;20247;-75
2023/04/03 08:10:50;;;;;;;12.93;6.95;;;;;;;12.56;59.27;93966.19;5095659;28;20194;-75
2023/04/03 08:13:17;;;;;;;12.00;6.80;;;;;;;12.37;60.26;93958.00;5102025;28;20223;-74
2023/04/03 08:15:44;;;;;;;14.23;7.22;;;;;;;12.29;60.28;93961.72;5088226;28;20234;-76
2023/04/03 08:18:11;;;;;;;17.65;8.32;;;;;;;12.21;60.33;93962.69;5091418;28;20583;-76
2023/04/03 08:20:39;;;;;;;22.80;8.70;;;;;;;11.68;62.11;93967.63;5099502;28;20854;-76
2023/04/03 08:23:06;;;;;;;15.38;8.98;;;;;;;11.62;62.57;93966.31;5097322;28;20349;-75
2023/04/03 08:25:38;;;;;;;21.67;11.02;;;;;;;11.29;63.67;93963.94;5090233;28;20267;-75
2023/04/03 08:28:06;;;;;;;23.98;13.77;;;;;;;11.35;63.62;93957.09;5094996;28;20221;-76
2023/04/03 08:30:33;;;;;;;21.10;10.63;;;;;;;11.51;63.92;93965.25;5105715;28;20204;-77
2023/04/03 08:33:02;;;;;;;16.90;9.80;;;;;;;11.67;63.45;93963.34;5100806;28;20251;-76
2023/04/03 08:35:29;;;;;;;20.30;8.70;;;;;;;12.30;61.26;93955.16;5117165;28;20233;-76
2023/04/03 08:37:56;;;;;;;19.70;11.23;;;;;;;13.01;59.26;93938.38;5100469;28;20205;-75
2023/04/03 08:40:23;;;;;;;30.15;11.82;;;;;;;13.38;58.58;93940.63;5091712;28;20203;-75
2023/04/03 08:43:05;;;;;;;21.33;11.82;;;;;;;13.84;56.90;93935.97;5106234;28;20224;-75
2023/04/03 08:45:44;;;;;;;21.27;11.30;;;;;;;13.20;57.93;93932.16;5105527;28;20201;-75
2023/04/03 08:48:15;;;;;;;21.65;11.73;;;;;;;13.14;58.27;93933.56;5098593;28;20256;-76
2023/04/03 08:50:44;;;;;;;15.70;7.05;;;;;;;12.85;59.07;93939.63;5087378;28;20267;-76
2023/04/03 08:53:15;;;;;;;17.88;8.52;;;;;;;13.07;58.75;93938.88;5090379;28;20197;-76
2023/04/03 08:55:45;;;;;;;14.38;7.43;;;;;;;13.47;57.43;93928.38;5089451;28;20201;-75
2023/04/03 08:58:17;;;;;;;22.05;8.18;;;;;;;13.44;57.33;93929.09;5092778;28;20242;-76
2023/04/03 09:00:48;;;;;;;17.83;8.30;;;;;;;13.23;57.90;93923.28;5084865;28;20199;-75
2023/04/03 09:03:16;;;;;;;16.15;9.77;;;;;;;14.08;56.27;93916.47;5073202;28;20206;-77
2023/04/03 09:05:47;;;;;;;19.00;9.88;;;;;;;13.45;57.45;93922.50;5082549;28;20213;-75
2023/04/03 09:08:22;;;;;;;21.63;11.57;;;;;;;14.08;56.19;93915.69;5094387;28;20836;-76
2023/04/03 09:10:51;;;;;;;21.00;12.63;;;;;;;14.77;55.54;93899.91;5096739;28;20300;-76
2023/04/03 09:13:31;;;;;;;17.05;9.90;;;;;;;14.46;54.49;93898.38;5089811;28;20278;-76
2023/04/03 09:15:58;;;;;;;13.40;8.68;;;;;;;13.84;56.16;93906.00;5107339;28;20279;-76
2023/04/03 09:18:29;;;;;;;16.33;7.40;;;;;;;13.55;57.16;93898.53;5094129;28;20197;-76
2023/04/03 09:21:03;;;;;;;11.13;5.50;;;;;;;13.61;56.90;93905.25;5081937;28;20210;-75
2023/04/03 09:23:33;;;;;;;9.35;5.32;;;;;;;13.59;57.04;93896.66;5073886;28;20204;-76
2023/04/03 09:26:06;;;;;;;11.32;4.55;;;;;;;13.55;56.21;93895.81;5088490;28;20271;-75
2023/04/03 09:28:38;;;;;;;6.97;3.83;;;;;;;13.71;55.20;93893.75;5096056;28;20205;-76
2023/04/03 09:31:19;;;;;;;7.63;4.03;;;;;;;13.50;56.11;93889.56;5101041;28;20292;-75
2023/04/03 09:33:47;;;;;;;5.18;2.65;;;;;;;13.40;55.74;93884.69;5075810;28;20256;-76
2023/04/03 09:36:14;;;;;;;6.13;3.00;;;;;;;13.68;55.33;93883.59;5099182;28;20690;-76
2023/04/03 09:38:41;;;;;;;6.07;4.00;;;;;;;14.13;54.74;93878.06;5087545;28;20549;-77
2023/04/03 09:41:19;;;;;;;6.15;2.38;;;;;;;14.14;52.83;93881.56;5073388;28;20289;-77
2023/04/03 09:43:55;;;;;;;5.40;1.95;;;;;;;14.57;51.75;93869.31;5100050;28;20672;-76
2023/04/03 09:46:30;;;;;;;6.97;1.95;;;;;;;14.40;51.30;93869.88;5067049;28;20290;-77
2023/04/03 09:49:00;;;;;;;2.15;1.30;;;;;;;13.95;51.91;93876.22;5096798;28;20265;-77
2023/04/03 09:51:28;;;;;;;4.43;2.45;;;;;;;13.78;52.63;93874.81;5096961;28;20254;-76
2023/04/03 09:53:55;;;;;;;3.30;1.70;;;;;;;13.91;51.96;93865.28;5089699;28;20292;-76
2023/04/03 09:56:26;;;;;;;3.85;1.80;;;;;;;14.35;51.52;93857.31;5097273;28;20243;-74
2023/04/03 09:59:08;;;;;;;3.67;1.60;;;;;;;13.99;52.93;93850.63;5100411;28;20219;-77
2023/04/03 10:01:37;;;;;;;1.83;1.42;;;;;;;13.95;52.87;93854.44;5100041;28;20257;-76
2023/04/03 10:04:09;;;;;;;2.97;1.73;;;;;;;13.68;52.69;93867.25;5093670;28;20212;-77
2023/04/03 10:06:40;;;;;;;2.10;1.50;;;;;;;13.84;51.89;93860.53;5106755;28;20552;-76
2023/04/03 10:09:19;;;;;;;6.15;1.83;;;;;;;13.76;51.86;93863.50;5095276;28;20246;-75
2023/04/03 10:12:01;;;;;;;2.83;1.85;;;;;;;13.42;53.86;93866.09;5104116;28;20229;-77
2023/04/03 10:14:29;;;;;;;2.50;1.52;;;;;;;13.13;54.82;93864.78;5098641;28;20229;-75
2023/04/03 10:17:06;;;;;;;1.20;1.08;;;;;;;12.86;55.67;93860.41;5096863;28;20691;-76
2023/04/03 10:19:38;;;;;;;2.08;1.63;;;;;;;12.74;56.38;93866.00;5097517;28;20206;-76
2023/04/03 10:22:16;;;;;;;5.50;1.88;;;;;;;12.45;57.33;93853.78;5077515;28;20297;-76
2023/04/03 10:24:52;;;;;;;3.13;1.88;;;;;;;12.56;56.97;93841.22;5085696;28;20202;-74
2023/04/03 10:27:27;;;;;;;3.55;2.20;;;;;;;12.84;56.63;93854.56;5092644;28;20210;-76
2023/04/03 10:30:04;;;;;;;5.57;2.35;;;;;;;12.80;56.37;93846.34;5081677;28;20885;-74
2023/04/03 10:32:54;;;;;;;3.05;1.50;;;;;;;12.84;56.41;93845.63;5080399;28;20287;-76
2023/04/03 10:35:35;;;;;;;2.75;2.00;;;;;;;12.98;55.68;93840.44;5080212;28;20202;-78
2023/04/03 10:38:10;;;;;;;4.72;1.90;;;;;;;12.85;56.59;93836.34;5094224;28;20224;-76
2023/04/03 10:40:47;;;;;;;3.53;2.17;;;;;;;12.70;56.26;93841.50;5081882;28;20194;-78
2023/04/03 10:43:23;;;;;;;3.47;1.52;;;;;;;12.59;56.67;93835.06;5083625;28;20731;-76
2023/04/03 10:45:58;;;;;;;3.45;1.98;;;;;;;12.69;56.61;93823.63;5086365;28;20193;-77
2023/04/03 10:48:41;;;;;;;3.97;2.00;;;;;;;12.82;56.98;93830.47;5079696;28;20637;-77
2023/04/03 10:51:18;;;;;;;2.25;1.30;;;;;;;12.78;55.87;93826.09;5080065;28;20285;-77
2023/04/03 10:53:56;;;;;;;5.22;1.98;;;;;;;12.67;57.04;93831.34;5085782;28;20195;-76
2023/04/03 10:56:31;;;;;;;3.45;1.38;;;;;;;12.48;57.60;93825.13;5085979;28;20603;-74
2023/04/03 10:59:02;;;;;;;4.38;2.00;;;;;;;12.62;58.10;93823.47;5094172;28;20733;-76
2023/04/03 11:01:36;;;;;;;6.55;1.98;;;;;;;12.81;59.07;93831.63;5086373;28;20198;-76
2023/04/03 11:04:07;;;;;;;9.48;1.88;;;;;;;12.73;60.28;93829.09;5086209;28;20199;-77
2023/04/03 11:06:39;;;;;;;6.88;2.05;;;;;;;12.31;63.48;93837.22;5085310;28;20201;-78
2023/04/03 11:09:12;;;;;;;2.35;1.48;;;;;;;11.97;64.84;93834.22;5078542;28;20212;-78
2023/04/03 11:11:40;;;;;;;3.28;2.10;;;;;;;11.68;64.27;93840.13;5086499;28;20237;-76
2023/04/03 11:14:16;;;;;;;1.70;1.23;;;;;;;11.53;66.69;93849.06;5082094;28;20243;-76
2023/04/03 11:16:47;;;;;;;3.60;2.33;;;;;;;11.20;67.66;93830.50;5105077;28;20221;-77
2023/04/03 11:19:23;;;;;;;3.15;2.03;;;;;;;11.07;70.31;93843.31;5100165;28;20201;-77
2023/04/03 11:21:56;;;;;;;3.00;1.90;;;;;;;10.96;72.09;93842.28;5089552;28;20210;-75
2023/04/03 11:24:26;;;;;;;2.10;1.38;;;;;;;10.81;72.12;93840.34;5089523;28;20191;-77
2023/04/03 11:26:54;;;;;;;1.88;1.50;;;;;;;10.54;73.69;93853.56;5089921;28;20195;-75
2023/04/03 11:29:26;;;;;;;1.67;1.10;;;;;;;10.46;75.60;93835.56;5089175;28;20197;-75
2023/04/03 11:32:13;;;;;;;3.08;1.27;;;;;;;10.35;77.66;93839.91;5088908;28;20279;-76
2023/04/03 11:34:43;;;;;;;2.42;2.00;;;;;;;10.36;79.31;93846.13;5101750;28;20194;-77
2023/04/03 11:37:18;;;;;;;2.90;1.98;;;;;;;10.37;80.79;93840.34;5088986;28;20630;-75
2023/04/03 11:39:55;;;;;;;1.55;1.30;;;;;;;10.52;81.08;93839.59;5082536;28;20194;-76
2023/04/03 11:42:32;;;;;;;2.70;1.67;;;;;;;10.54;82.22;93845.44;5088788;28;20198;-75